Time;durP1;ratioP1;P1;durP2;ratioP2;P2;SDS_P1;SDS_P2;PMS_P1;PMS_P2;Temp;Humidity;BMP_temperature;BMP_pressure;BME280_temperature;BME280_humidity;BME280_pressure;Samples;Min_cycle;Max_cycle;Signal;HPM_P1;HPM_P2
2022/07/31 00:01:28;;;;;;;5.38;3.72;;;19.90;73.80;;;;;;5013579;28;20412;-14
2022/07/31 00:03:54;;;;;;;5.22;3.83;;;19.90;73.50;;;;;;5014255;28;20389;-14
2022/07/31 00:06:20;;;;;;;5.47;4.22;;;19.80;73.50;;;;;;5014143;28;20482;-14
2022/07/31 00:08:47;;;;;;;6.30;4.60;;;19.80;73.70;;;;;;5014579;28;20025;-14
2022/07/31 00:11:13;;;;;;;5.93;4.10;;;19.70;74.30;;;;;;5014041;28;20034;-14
2022/07/31 00:13:39;;;;;;;7.70;4.53;;;19.60;74.20;;;;;;5014016;28;20026;-14
2022/07/31 00:16:05;;;;;;;8.27;4.85;;;19.60;74.20;;;;;;5014112;28;20040;-14
2022/07/31 00:18:33;;;;;;;9.43;5.55;;;19.60;74.20;;;;;;5013903;28;20026;-13
2022/07/31 00:21:01;;;;;;;6.47;4.60;;;19.50;74.30;;;;;;5013978;28;20022;-13
2022/07/31 00:23:28;;;;;;;7.32;4.18;;;19.50;74.70;;;;;;5014139;28;20049;-13
2022/07/31 00:25:54;;;;;;;5.90;4.28;;;19.40;74.60;;;;;;5013886;28;20113;-13
2022/07/31 00:28:20;;;;;;;7.20;4.53;;;19.40;74.70;;;;;;5013727;28;20042;-13
2022/07/31 00:30:46;;;;;;;6.10;4.18;;;19.40;75.00;;;;;;5014683;28;20022;-13
2022/07/31 00:33:13;;;;;;;5.93;4.20;;;19.40;75.10;;;;;;5013755;28;20537;-14
2022/07/31 00:35:39;;;;;;;8.27;5.22;;;19.30;75.50;;;;;;5012433;28;20110;-13
2022/07/31 00:38:05;;;;;;;8.65;5.53;;;19.20;75.30;;;;;;5012507;28;20026;-13
2022/07/31 00:40:31;;;;;;;10.38;7.45;;;19.20;75.50;;;;;;5013155;28;20119;-13
2022/07/31 00:42:56;;;;;;;8.57;5.88;;;19.10;75.90;;;;;;5013651;28;20070;-13
2022/07/31 00:45:23;;;;;;;7.65;5.13;;;19.10;76.40;;;;;;5013489;28;20034;-13
2022/07/31 00:47:49;;;;;;;8.38;5.72;;;19.10;76.20;;;;;;5013558;28;20026;-13
2022/07/31 00:50:15;;;;;;;7.28;4.95;;;19.10;76.30;;;;;;5013452;28;20497;-13
2022/07/31 00:52:41;;;;;;;9.50;6.00;;;19.10;76.30;;;;;;5012359;28;20103;-13
2022/07/31 00:55:08;;;;;;;7.93;4.90;;;19.10;76.80;;;;;;5013781;28;20026;-13
2022/07/31 00:57:34;;;;;;;7.90;4.70;;;19.10;76.60;;;;;;5013371;28;20049;-13
2022/07/31 00:59:59;;;;;;;6.68;4.60;;;19.10;76.60;;;;;;5013540;28;20148;-14
2022/07/31 01:02:25;;;;;;;7.70;5.00;;;19.10;76.70;;;;;;5013064;28;20026;-13
2022/07/31 01:04:51;;;;;;;7.72;5.45;;;19.00;76.50;;;;;;5012774;28;20037;-13
2022/07/31 01:07:17;;;;;;;6.90;4.78;;;19.00;76.90;;;;;;5013349;28;20072;-13
2022/07/31 01:09:45;;;;;;;7.63;4.60;;;18.90;77.00;;;;;;5013596;28;20116;-13
2022/07/31 01:12:21;;;;;;;6.57;4.57;;;18.90;76.70;;;;;;5013285;28;20044;-13
2022/07/31 01:14:51;;;;;;;7.07;5.13;;;18.90;76.80;;;;;;5017475;28;20053;-13
2022/07/31 01:17:20;;;;;;;10.02;6.45;;;18.90;77.30;;;;;;5017209;28;20072;-13
2022/07/31 01:19:49;;;;;;;8.20;5.03;;;18.80;77.20;;;;;;5017455;28;20053;-13
2022/07/31 01:22:52;;;;;;;8.10;4.75;;;18.80;77.30;;;;;;5015812;28;20022;-14
2022/07/31 01:25:54;;;;;;;5.97;4.72;;;18.80;77.50;;;;;;5017238;28;20022;-13
2022/07/31 01:29:01;;;;;;;5.53;4.05;;;18.70;77.40;;;;;;5008641;28;20030;-14
2022/07/31 01:31:38;;;;;;;10.13;5.68;;;18.70;77.30;;;;;;5017054;28;20084;-13
2022/07/31 01:34:33;;;;;;;6.30;4.88;;;18.70;77.40;;;;;;5017111;28;20026;-13
2022/07/31 01:37:21;;;;;;;7.22;4.97;;;18.70;77.60;;;;;;5017314;28;20046;-14
2022/07/31 01:40:12;;;;;;;6.25;4.57;;;18.60;77.80;;;;;;5017045;28;20133;-13
2022/07/31 01:42:41;;;;;;;10.02;5.38;;;18.60;77.70;;;;;;5016682;28;20034;-13
2022/07/31 01:45:13;;;;;;;8.63;5.45;;;18.60;77.80;;;;;;5017075;28;20390;-13
2022/07/31 01:47:40;;;;;;;9.50;6.85;;;18.50;77.70;;;;;;5017054;28;20034;-13
2022/07/31 01:50:08;;;;;;;10.85;7.55;;;18.50;77.70;;;;;;5016952;28;20018;-14
2022/07/31 01:52:36;;;;;;;13.75;8.27;;;18.50;78.20;;;;;;5016685;28;20024;-13
2022/07/31 01:55:04;;;;;;;9.88;6.95;;;18.50;78.60;;;;;;5015912;28;20053;-14
2022/07/31 01:57:31;;;;;;;11.15;7.97;;;18.50;78.80;;;;;;5017096;28;20375;-14
2022/07/31 02:00:04;;;;;;;8.02;5.68;;;18.50;78.70;;;;;;5016853;28;20109;-14
2022/07/31 02:02:31;;;;;;;9.38;7.32;;;18.40;78.90;;;;;;5016245;28;20493;-13
2022/07/31 02:04:58;;;;;;;11.05;7.03;;;18.40;79.20;;;;;;5016946;28;20030;-13
2022/07/31 02:07:25;;;;;;;7.65;5.82;;;18.40;79.10;;;;;;5016606;28;20053;-13
2022/07/31 02:09:53;;;;;;;9.38;6.47;;;18.40;79.00;;;;;;5016420;28;20036;-13
2022/07/31 02:12:19;;;;;;;7.63;5.55;;;18.40;79.00;;;;;;5016228;28;20026;-13
2022/07/31 02:14:47;;;;;;;11.15;6.25;;;18.40;79.00;;;;;;5016798;28;20022;-13
2022/07/31 02:17:14;;;;;;;10.65;6.55;;;18.40;79.10;;;;;;5016195;28;20405;-13
2022/07/31 02:19:41;;;;;;;9.02;5.97;;;18.40;79.00;;;;;;5016736;28;20065;-13
2022/07/31 02:22:07;;;;;;;8.88;6.35;;;18.40;78.90;;;;;;5016272;28;20072;-13
2022/07/31 02:24:34;;;;;;;9.27;6.05;;;18.40;78.90;;;;;;5014852;28;20034;-13
2022/07/31 02:27:01;;;;;;;9.30;6.07;;;18.40;79.30;;;;;;5016077;28;20022;-13
2022/07/31 02:29:31;;;;;;;9.18;6.53;;;18.30;79.40;;;;;;5016492;28;20018;-13
2022/07/31 02:31:59;;;;;;;9.55;7.18;;;18.20;79.50;;;;;;5016258;28;20168;-14
2022/07/31 02:34:26;;;;;;;15.27;8.63;;;18.30;79.70;;;;;;5015726;28;20050;-14
2022/07/31 02:36:53;;;;;;;9.85;6.32;;;18.20;79.70;;;;;;5016364;28;20385;-14
2022/07/31 02:39:21;;;;;;;11.20;8.25;;;18.20;79.60;;;;;;5015866;28;20034;-14
2022/07/31 02:41:48;;;;;;;8.52;6.50;;;18.20;79.80;;;;;;5016113;28;20438;-14
2022/07/31 02:44:15;;;;;;;9.82;6.47;;;18.20;79.90;;;;;;5015773;28;20034;-14
2022/07/31 02:46:43;;;;;;;8.88;6.45;;;18.20;80.10;;;;;;5014397;28;20026;-14
2022/07/31 02:49:12;;;;;;;8.50;6.63;;;18.20;80.20;;;;;;5015885;28;20397;-13
2022/07/31 02:51:40;;;;;;;8.13;5.72;;;18.20;80.00;;;;;;5015693;28;20053;-14
2022/07/31 02:54:06;;;;;;;8.77;6.22;;;18.20;79.80;;;;;;5015595;28;20025;-14
2022/07/31 02:56:33;;;;;;;11.02;7.95;;;18.20;79.80;;;;;;5015407;28;20038;-14
2022/07/31 02:58:59;;;;;;;9.63;7.18;;;18.10;79.90;;;;;;5014287;28;20445;-14
2022/07/31 03:01:26;;;;;;;8.63;5.90;;;18.00;79.90;;;;;;5014155;28;20026;-14
2022/07/31 03:03:52;;;;;;;10.82;7.40;;;18.00;80.30;;;;;;5015706;28;20025;-14
2022/07/31 03:06:18;;;;;;;8.52;6.45;;;17.90;80.70;;;;;;5015155;28;20022;-14
2022/07/31 03:08:44;;;;;;;7.30;5.55;;;17.90;80.50;;;;;;5015311;28;20033;-13
2022/07/31 03:11:10;;;;;;;11.35;7.57;;;17.90;80.50;;;;;;5015467;28;20025;-14
2022/07/31 03:13:37;;;;;;;17.05;9.25;;;17.90;80.50;;;;;;5013899;28;20030;-14
2022/07/31 03:16:06;;;;;;;13.95;8.68;;;17.90;80.60;;;;;;5015188;28;20481;-13
2022/07/31 03:18:32;;;;;;;9.05;6.70;;;17.80;80.80;;;;;;5015192;28;20052;-13
2022/07/31 03:20:58;;;;;;;9.45;6.15;;;17.80;81.10;;;;;;5015371;28;20026;-13
2022/07/31 03:23:26;;;;;;;7.97;6.00;;;17.70;80.90;;;;;;5015193;28;20437;-13
2022/07/31 03:25:53;;;;;;;7.70;5.25;;;17.70;80.90;;;;;;5014944;28;20037;-13
2022/07/31 03:28:20;;;;;;;10.05;7.03;;;17.70;80.90;;;;;;5014702;28;20026;-13
2022/07/31 03:30:51;;;;;;;9.85;6.05;;;17.70;81.30;;;;;;5014696;28;20092;-13
2022/07/31 03:33:17;;;;;;;10.10;6.30;;;17.70;81.00;;;;;;5014864;28;20437;-13
2022/07/31 03:35:43;;;;;;;8.90;6.65;;;17.60;81.30;;;;;;5014558;28;20073;-14
2022/07/31 03:38:09;;;;;;;8.32;6.25;;;17.60;81.20;;;;;;5013738;28;20113;-13
2022/07/31 03:40:35;;;;;;;8.80;5.80;;;17.60;81.00;;;;;;5014405;28;20057;-14
2022/07/31 03:43:02;;;;;;;9.68;5.63;;;17.50;81.10;;;;;;5014975;28;20076;-14
2022/07/31 03:45:30;;;;;;;10.82;6.35;;;17.50;81.20;;;;;;5015092;28;20025;-13
2022/07/31 03:47:57;;;;;;;10.38;6.95;;;17.50;81.10;;;;;;5014533;28;20014;-14
2022/07/31 03:50:24;;;;;;;10.43;6.65;;;17.50;81.30;;;;;;5014394;28;20037;-14
2022/07/31 03:52:50;;;;;;;14.23;8.35;;;17.50;81.20;;;;;;5014481;28;20026;-14
2022/07/31 03:55:16;;;;;;;11.98;7.07;;;17.50;81.30;;;;;;5014750;28;20493;-14
2022/07/31 03:57:43;;;;;;;8.55;6.10;;;17.50;81.50;;;;;;5014310;28;20041;-16
2022/07/31 04:00:10;;;;;;;9.68;6.80;;;17.50;81.30;;;;;;5014531;28;20033;-15
2022/07/31 04:02:36;;;;;;;10.02;6.55;;;17.50;81.50;;;;;;5014052;28;20529;-14
2022/07/31 04:05:03;;;;;;;9.77;6.60;;;17.50;81.30;;;;;;5015090;28;20044;-13
2022/07/31 04:07:29;;;;;;;9.65;6.15;;;17.50;81.40;;;;;;5014416;28;20032;-14
2022/07/31 04:09:55;;;;;;;15.98;10.20;;;17.50;81.40;;;;;;5014573;28;20077;-14
2022/07/31 04:12:21;;;;;;;11.43;8.05;;;17.50;83.60;;;;;;5013893;28;20479;-16
2022/07/31 04:14:47;;;;;;;12.30;9.13;;;17.40;83.20;;;;;;5014028;28;20037;-15
2022/07/31 04:17:14;;;;;;;16.35;10.35;;;17.30;82.30;;;;;;5014445;28;20037;-15
2022/07/31 04:19:40;;;;;;;15.15;10.32;;;17.40;82.20;;;;;;5014304;28;20025;-15
2022/07/31 04:22:06;;;;;;;13.70;9.68;;;17.40;82.30;;;;;;5014070;28;20540;-14
2022/07/31 04:24:33;;;;;;;13.00;8.63;;;17.40;82.30;;;;;;5013814;28;20025;-14
2022/07/31 04:26:59;;;;;;;12.18;8.20;;;17.50;82.40;;;;;;5013963;28;20493;-15
2022/07/31 04:29:27;;;;;;;11.32;8.40;;;17.50;82.40;;;;;;5013843;28;20030;-14
2022/07/31 04:31:54;;;;;;;11.25;7.47;;;17.60;82.60;;;;;;5013821;28;20065;-14
2022/07/31 04:34:20;;;;;;;14.90;9.73;;;17.70;82.60;;;;;;5013864;28;20109;-14
2022/07/31 04:36:47;;;;;;;9.75;7.68;;;17.80;83.20;;;;;;5014416;28;20065;-14
2022/07/31 04:39:12;;;;;;;11.60;7.50;;;17.80;83.70;;;;;;5013111;28;20494;-14
2022/07/31 04:41:38;;;;;;;12.77;8.43;;;17.90;83.30;;;;;;5013723;28;20054;-14
2022/07/31 04:44:04;;;;;;;13.93;8.93;;;17.90;82.90;;;;;;5013618;28;20026;-14
2022/07/31 04:46:30;;;;;;;14.80;8.40;;;17.90;83.20;;;;;;5013294;28;20057;-14
2022/07/31 04:48:56;;;;;;;22.73;9.88;;;17.90;82.90;;;;;;5013004;28;20034;-15
2022/07/31 04:51:23;;;;;;;34.25;13.55;;;18.00;82.50;;;;;;5013928;28;20521;-14
2022/07/31 04:53:50;;;;;;;17.30;8.75;;;18.10;82.40;;;;;;5013522;28;20029;-14
2022/07/31 04:56:32;;;;;;;16.17;9.70;;;18.10;82.10;;;;;;5013439;28;20548;-15
2022/07/31 04:59:05;;;;;;;11.00;7.93;;;18.20;82.00;;;;;;5013517;28;20478;-16
2022/07/31 05:01:32;;;;;;;17.85;12.40;;;18.30;81.90;;;;;;5013383;28;20037;-16
2022/07/31 05:04:00;;;;;;;16.95;12.85;;;18.40;81.80;;;;;;5013669;28;20021;-14
2022/07/31 05:06:37;;;;;;;14.68;10.43;;;18.50;82.30;;;;;;5013482;28;20061;-15
2022/07/31 05:09:09;;;;;;;23.20;10.10;;;18.60;81.70;;;;;;5013698;28;20026;-14
2022/07/31 05:11:36;;;;;;;15.57;10.73;;;18.70;81.80;;;;;;5013381;28;20549;-14
2022/07/31 05:14:04;;;;;;;20.50;11.73;;;18.90;82.60;;;;;;5013556;28;20382;-14
2022/07/31 05:16:31;;;;;;;15.60;11.43;;;19.00;83.90;;;;;;5012977;28;20025;-15
2022/07/31 05:18:58;;;;;;;17.88;13.65;;;19.10;83.00;;;;;;5013566;28;20065;-14
2022/07/31 05:21:29;;;;;;;16.95;13.68;;;19.30;83.90;;;;;;5013414;28;20025;-13
2022/07/31 05:23:57;;;;;;;17.50;12.35;;;19.40;84.20;;;;;;5013517;28;20022;-13
2022/07/31 05:26:23;;;;;;;17.90;13.00;;;19.60;83.50;;;;;;5013392;28;20030;-14
2022/07/31 05:28:53;;;;;;;15.25;12.02;;;19.80;83.40;;;;;;5013492;28;20037;-13
2022/07/31 05:31:19;;;;;;;15.23;10.23;;;19.90;82.40;;;;;;5013393;28;20049;-13
2022/07/31 05:33:47;;;;;;;21.55;14.57;;;20.00;81.80;;;;;;5013093;28;20080;-13
2022/07/31 05:36:14;;;;;;;21.08;14.38;;;20.20;82.70;;;;;;5013199;28;20116;-13
2022/07/31 05:38:40;;;;;;;24.33;15.02;;;20.40;82.00;;;;;;5013149;28;20485;-13
2022/07/31 05:41:07;;;;;;;21.35;15.55;;;20.50;81.30;;;;;;5012953;28;20046;-13
2022/07/31 05:43:34;;;;;;;17.92;13.02;;;20.60;80.40;;;;;;5013025;28;20041;-14
2022/07/31 05:46:00;;;;;;;15.20;11.27;;;20.70;80.00;;;;;;5012914;28;20519;-13
2022/07/31 05:48:25;;;;;;;20.15;15.07;;;20.90;79.40;;;;;;5011553;28;20026;-13
2022/07/31 05:50:52;;;;;;;16.45;11.85;;;21.00;79.10;;;;;;5011743;28;20026;-13
2022/07/31 05:53:19;;;;;;;17.02;13.35;;;21.10;79.20;;;;;;5013250;28;20076;-13
2022/07/31 05:55:47;;;;;;;16.95;13.35;;;21.30;78.30;;;;;;5012926;28;20029;-13
2022/07/31 05:58:16;;;;;;;21.27;15.05;;;21.40;78.20;;;;;;5012979;28;20448;-13
2022/07/31 06:00:43;;;;;;;19.02;12.30;;;21.40;77.90;;;;;;5016943;28;20026;-14
2022/07/31 06:03:11;;;;;;;15.70;11.40;;;21.60;77.50;;;;;;5016529;28;20037;-13
2022/07/31 06:05:39;;;;;;;16.30;11.93;;;21.70;76.70;;;;;;5016824;28;20029;-13
2022/07/31 06:08:05;;;;;;;13.70;9.35;;;21.80;76.50;;;;;;5016432;28;20067;-14
2022/07/31 06:10:31;;;;;;;11.52;8.38;;;21.90;75.90;;;;;;5016544;28;20037;-13
2022/07/31 06:12:57;;;;;;;12.95;10.13;;;22.00;75.50;;;;;;5016341;28;20513;-14
2022/07/31 06:15:23;;;;;;;10.38;8.43;;;22.10;75.00;;;;;;5016515;28;20029;-14
2022/07/31 06:17:49;;;;;;;10.30;7.80;;;22.20;74.10;;;;;;5014973;28;20034;-13
2022/07/31 06:20:15;;;;;;;12.43;7.50;;;22.30;73.90;;;;;;5016082;28;20025;-14
2022/07/31 06:22:45;;;;;;;14.18;9.90;;;22.40;73.80;;;;;;5016723;28;20026;-12
2022/07/31 06:25:11;;;;;;;9.48;6.97;;;22.50;72.80;;;;;;5016463;28;20033;-13
2022/07/31 06:27:38;;;;;;;11.10;8.63;;;22.70;72.90;;;;;;5014898;28;20029;-13
2022/07/31 06:30:06;;;;;;;13.38;9.65;;;22.90;72.80;;;;;;5016378;28;20034;-14
2022/07/31 06:32:33;;;;;;;12.38;9.23;;;22.90;72.30;;;;;;5015666;28;20458;-13
2022/07/31 06:34:59;;;;;;;12.80;9.02;;;23.10;71.40;;;;;;5015952;28;20109;-14
2022/07/31 06:37:25;;;;;;;10.60;8.07;;;23.30;70.70;;;;;;5015753;28;20060;-14
2022/07/31 06:39:51;;;;;;;14.00;8.85;;;23.40;70.10;;;;;;5015615;28;20050;-14
2022/07/31 06:42:24;;;;;;;11.15;7.80;;;23.50;69.70;;;;;;5015889;28;20478;-14
2022/07/31 06:44:52;;;;;;;10.60;7.53;;;23.70;69.90;;;;;;5016100;28;20053;-14
2022/07/31 06:47:20;;;;;;;11.93;8.57;;;23.80;69.50;;;;;;5015627;28;20033;-14
2022/07/31 06:49:46;;;;;;;12.38;8.70;;;23.90;69.10;;;;;;5016157;28;20026;-14
2022/07/31 06:52:12;;;;;;;12.90;9.32;;;24.10;68.50;;;;;;5015578;28;20072;-14
2022/07/31 06:54:38;;;;;;;10.90;7.47;;;24.20;68.40;;;;;;5015410;28;20026;-13
2022/07/31 06:57:04;;;;;;;8.93;7.22;;;24.40;68.00;;;;;;5015489;28;20029;-13
2022/07/31 06:59:30;;;;;;;12.15;9.55;;;24.50;67.70;;;;;;5014304;28;20034;-13
2022/07/31 07:01:55;;;;;;;8.90;7.15;;;24.70;66.40;;;;;;5014165;28;20394;-14
2022/07/31 07:04:21;;;;;;;11.30;8.68;;;24.80;66.40;;;;;;5015185;28;20382;-14
2022/07/31 07:06:47;;;;;;;10.05;7.85;;;25.00;66.30;;;;;;5015844;28;20022;-13
2022/07/31 07:09:13;;;;;;;8.75;6.68;;;25.10;66.10;;;;;;5015864;28;20034;-14
2022/07/31 07:11:39;;;;;;;9.13;6.22;;;25.30;65.70;;;;;;5015017;28;20034;-14
2022/07/31 07:14:05;;;;;;;10.05;8.20;;;25.50;65.20;;;;;;5015350;28;20025;-14
2022/07/31 07:16:31;;;;;;;11.05;6.80;;;25.60;63.90;;;;;;5014918;28;20038;-14
2022/07/31 07:18:57;;;;;;;9.23;7.13;;;25.80;63.70;;;;;;5015483;28;20482;-14
2022/07/31 07:21:23;;;;;;;8.60;6.63;;;25.90;63.00;;;;;;5015105;28;20041;-14
2022/07/31 07:23:48;;;;;;;7.57;5.85;;;26.10;62.60;;;;;;5015284;28;20014;-13
2022/07/31 07:26:14;;;;;;;7.93;5.35;;;26.30;61.50;;;;;;5014734;28;20053;-14
2022/07/31 07:28:40;;;;;;;10.23;6.95;;;26.40;61.30;;;;;;5015300;28;20109;-13
2022/07/31 07:31:06;;;;;;;8.13;6.05;;;26.60;60.50;;;;;;5015411;28;20433;-13
2022/07/31 07:33:32;;;;;;;9.88;6.30;;;26.70;60.20;;;;;;5015503;28;20473;-14
2022/07/31 07:35:58;;;;;;;9.32;7.03;;;26.90;59.90;;;;;;5014721;28;20492;-14
2022/07/31 07:38:24;;;;;;;11.18;6.78;;;27.10;59.50;;;;;;5014534;28;20061;-14
2022/07/31 07:40:50;;;;;;;8.50;5.90;;;27.30;58.90;;;;;;5014569;28;20042;-13
2022/07/31 07:43:17;;;;;;;7.97;5.63;;;27.40;59.20;;;;;;5013454;28;20036;-14
2022/07/31 07:45:43;;;;;;;9.18;6.07;;;27.60;58.80;;;;;;5014700;28;20589;-14
2022/07/31 07:48:09;;;;;;;9.57;7.15;;;27.80;57.50;;;;;;5014582;28;20100;-13
2022/07/31 07:50:35;;;;;;;8.80;5.78;;;28.00;56.80;;;;;;5014725;28;20034;-13
2022/07/31 07:53:01;;;;;;;10.18;5.75;;;28.20;56.90;;;;;;5015087;28;20390;-13
2022/07/31 07:55:27;;;;;;;8.15;6.60;;;28.40;56.50;;;;;;5014444;28;20532;-13
2022/07/31 07:57:53;;;;;;;8.00;5.50;;;28.50;55.80;;;;;;5013121;28;20037;-13
2022/07/31 08:00:20;;;;;;;6.35;5.28;;;28.70;55.10;;;;;;5014192;28;20512;-13
2022/07/31 08:02:47;;;;;;;6.25;5.00;;;28.90;53.70;;;;;;5014487;28;20374;-13
2022/07/31 08:05:14;;;;;;;7.75;4.75;;;29.20;53.70;;;;;;5014506;28;20493;-13
2022/07/31 08:07:41;;;;;;;5.53;4.22;;;29.40;53.30;;;;;;5014545;28;20018;-13
2022/07/31 08:10:08;;;;;;;4.45;3.78;;;29.70;53.00;;;;;;5014607;28;20116;-13
2022/07/31 08:12:35;;;;;;;6.30;3.90;;;29.90;50.90;;;;;;5014099;28;20037;-12
2022/07/31 08:15:01;;;;;;;5.47;4.57;;;30.20;48.80;;;;;;5015017;28;20026;-12
2022/07/31 08:17:27;;;;;;;5.65;4.13;;;30.40;49.00;;;;;;5013912;28;20620;-13
2022/07/31 08:19:53;;;;;;;4.63;3.75;;;30.60;49.00;;;;;;5013969;28;20061;-13
2022/07/31 08:22:19;;;;;;;8.13;4.53;;;30.80;48.50;;;;;;5012949;28;20104;-13
2022/07/31 08:24:45;;;;;;;5.28;3.80;;;31.00;47.20;;;;;;5014233;28;20053;-13
2022/07/31 08:27:23;;;;;;;4.72;3.53;;;31.30;46.80;;;;;;5013906;28;20022;-13
2022/07/31 08:30:01;;;;;;;6.07;3.60;;;31.50;44.70;;;;;;5014212;28;20030;-13
2022/07/31 08:32:28;;;;;;;5.13;3.72;;;31.50;44.90;;;;;;5013886;28;20021;-13
2022/07/31 08:34:55;;;;;;;5.43;3.53;;;31.80;44.50;;;;;;5014106;28;20101;-13
2022/07/31 08:37:21;;;;;;;5.22;3.28;;;32.00;44.00;;;;;;5013975;28;20037;-13
2022/07/31 08:39:49;;;;;;;4.28;3.50;;;32.20;44.20;;;;;;5012065;28;20556;-13
2022/07/31 08:42:16;;;;;;;4.28;3.65;;;32.40;42.80;;;;;;5013457;28;20034;-14
2022/07/31 08:44:44;;;;;;;4.75;3.35;;;32.50;42.50;;;;;;5014635;28;20037;-14
2022/07/31 08:47:13;;;;;;;5.05;3.08;;;32.40;43.00;;;;;;5013540;28;20026;-13
2022/07/31 08:49:47;;;;;;;3.42;3.10;;;32.30;43.30;;;;;;5013825;28;20037;-13
2022/07/31 08:52:20;;;;;;;4.13;2.90;;;32.40;43.40;;;;;;5013816;28;20030;-13
2022/07/31 08:54:49;;;;;;;6.25;3.15;;;32.60;43.00;;;;;;5013566;28;20058;-13
2022/07/31 08:57:15;;;;;;;2.92;2.63;;;32.90;41.70;;;;;;5013718;28;20030;-13
2022/07/31 08:59:41;;;;;;;2.80;2.60;;;33.00;39.90;;;;;;5013559;28;20065;-13
2022/07/31 09:02:11;;;;;;;2.90;2.60;;;33.20;39.70;;;;;;5013332;28;20053;-13
2022/07/31 09:04:38;;;;;;;4.10;2.92;;;33.50;39.20;;;;;;5013242;28;20026;-13
2022/07/31 09:07:09;;;;;;;4.13;2.90;;;33.60;38.60;;;;;;5012162;28;20036;-13
2022/07/31 09:09:34;;;;;;;3.63;2.70;;;33.50;38.30;;;;;;5013607;28;20022;-13
2022/07/31 09:12:00;;;;;;;5.65;2.80;;;33.50;38.80;;;;;;5013307;28;20457;-13
2022/07/31 09:14:29;;;;;;;2.63;2.42;;;33.50;38.40;;;;;;5013077;28;20033;-14
2022/07/31 09:16:56;;;;;;;3.38;2.47;;;33.30;38.90;;;;;;5013545;28;20509;-13
2022/07/31 09:19:24;;;;;;;4.75;2.75;;;33.40;39.60;;;;;;5013588;28;20049;-14
2022/07/31 09:21:51;;;;;;;2.83;2.08;;;33.60;39.10;;;;;;5013132;28;20092;-13
2022/07/31 09:24:32;;;;;;;4.57;3.22;;;34.00;39.10;;;;;;5013331;28;20117;-14
2022/07/31 09:27:02;;;;;;;3.08;2.25;;;34.40;38.10;;;;;;5012021;28;20030;-13
2022/07/31 09:29:39;;;;;;;4.00;2.85;;;34.50;37.90;;;;;;5013450;28;20030;-13
2022/07/31 09:32:08;;;;;;;3.47;2.60;;;34.60;37.10;;;;;;5013091;28;20065;-13
2022/07/31 09:34:34;;;;;;;2.50;2.30;;;34.60;37.30;;;;;;5015398;28;20065;-13
2022/07/31 09:37:14;;;;;;;3.92;2.45;;;34.60;37.50;;;;;;5015733;28;20076;-13
2022/07/31 09:39:41;;;;;;;3.75;2.88;;;34.80;37.60;;;;;;5017063;28;20049;-13
2022/07/31 09:42:08;;;;;;;3.72;2.70;;;35.00;36.70;;;;;;5017212;28;20500;-13
2022/07/31 09:44:42;;;;;;;3.72;2.78;;;35.30;35.60;;;;;;5016679;28;20030;-13
2022/07/31 09:47:28;;;;;;;3.35;2.90;;;35.40;36.10;;;;;;5017232;28;20022;-13
2022/07/31 09:49:59;;;;;;;4.13;3.05;;;35.80;33.80;;;;;;5017154;28;20544;-14
2022/07/31 09:52:27;;;;;;;4.25;3.05;;;35.80;34.60;;;;;;5016707;28;20034;-13
2022/07/31 09:55:01;;;;;;;3.90;2.78;;;35.80;34.40;;;;;;5017065;28;20057;-14
2022/07/31 09:57:26;;;;;;;5.47;3.00;;;36.00;33.90;;;;;;5016921;28;20363;-13
2022/07/31 09:59:52;;;;;;;5.78;3.33;;;36.10;34.80;;;;;;5016605;28;20152;-14
2022/07/31 10:02:19;;;;;;;4.95;3.17;;;36.30;34.60;;;;;;5016698;28;20031;-14
2022/07/31 10:04:47;;;;;;;3.65;2.78;;;36.40;33.40;;;;;;5016552;28;20037;-14
2022/07/31 10:07:15;;;;;;;4.95;2.65;;;36.20;34.00;;;;;;5016482;28;20034;-14
2022/07/31 10:09:42;;;;;;;3.50;3.08;;;36.00;34.50;;;;;;5016791;28;20490;-14
2022/07/31 10:12:13;;;;;;;3.15;2.85;;;36.00;34.60;;;;;;5016702;28;20040;-13
2022/07/31 10:14:42;;;;;;;3.75;2.90;;;35.90;34.40;;;;;;5016523;28;20022;-14
2022/07/31 10:17:09;;;;;;;3.25;2.95;;;35.90;34.20;;;;;;5016168;28;20433;-14
2022/07/31 10:19:40;;;;;;;3.17;2.65;;;36.00;34.20;;;;;;5016370;28;20056;-14
2022/07/31 10:22:10;;;;;;;4.05;3.03;;;36.30;33.90;;;;;;5016578;28;20026;-13
2022/07/31 10:24:46;;;;;;;2.85;2.50;;;36.60;33.00;;;;;;5016167;28;20014;-13
2022/07/31 10:27:14;;;;;;;5.63;2.70;;;37.00;33.30;;;;;;5016441;28;20030;-13
2022/07/31 10:29:41;;;;;;;3.33;2.45;;;37.40;32.90;;;;;;5016372;28;20029;-14
2022/07/31 10:32:07;;;;;;;4.38;2.55;;;37.60;32.60;;;;;;5016118;28;20099;-13
2022/07/31 10:34:34;;;;;;;2.95;2.55;;;37.90;31.10;;;;;;5016083;28;20100;-13
2022/07/31 10:37:19;;;;;;;4.80;2.75;;;37.90;31.10;;;;;;5016323;28;20056;-14
2022/07/31 10:39:59;;;;;;;3.35;2.45;;;38.00;30.60;;;;;;5014494;28;20109;-13
2022/07/31 10:43:19;;;;;;;3.03;2.40;;;37.90;29.60;;;;;;5015876;28;20022;-14
2022/07/31 10:45:54;;;;;;;2.10;2.00;;;37.90;29.60;;;;;;4993272;28;20444;-13
2022/07/31 10:48:22;;;;;;;2.90;2.28;;;38.00;29.00;;;;;;4993849;28;20066;-13
2022/07/31 10:51:01;;;;;;;2.65;2.08;;;37.90;29.30;;;;;;5007896;28;20030;-13
2022/07/31 10:53:27;;;;;;;2.75;1.92;;;37.70;29.80;;;;;;5015678;28;20422;-13
2022/07/31 10:56:12;;;;;;;3.17;1.98;;;37.70;29.50;;;;;;5015882;28;20056;-13
2022/07/31 10:58:57;;;;;;;1.85;1.75;;;37.90;29.30;;;;;;5015780;28;20041;-14
2022/07/31 11:01:25;;;;;;;1.70;1.60;;;38.30;28.70;;;;;;5015528;28;20041;-13
2022/07/31 11:03:59;;;;;;;2.55;1.85;;;38.70;28.30;;;;;;5015460;28;20568;-14
2022/07/31 11:06:36;;;;;;;2.42;2.08;;;39.20;27.80;;;;;;5015530;28;20053;-14
2022/07/31 11:09:02;;;;;;;2.97;1.98;;;39.40;27.90;;;;;;5015452;28;20026;-14
2022/07/31 11:11:33;;;;;;;2.83;1.90;;;39.60;27.60;;;;;;5015635;28;20105;-14
2022/07/31 11:13:59;;;;;;;2.40;1.85;;;39.50;26.60;;;;;;5015472;28;20022;-13
2022/07/31 11:16:26;;;;;;;2.47;1.95;;;39.40;27.40;;;;;;5014821;28;20030;-13
2022/07/31 11:18:59;;;;;;;2.67;1.80;;;39.40;27.70;;;;;;5015549;28;20112;-13
2022/07/31 11:21:38;;;;;;;1.83;1.70;;;39.60;27.50;;;;;;5015407;28;20041;-13
2022/07/31 11:24:21;;;;;;;2.20;2.00;;;40.10;26.00;;;;;;5015097;28;20396;-13
2022/07/31 11:26:57;;;;;;;2.45;1.77;;;40.70;24.60;;;;;;5015406;28;20030;-13
2022/07/31 11:29:26;;;;;;;3.53;1.80;;;41.30;24.00;;;;;;5015400;28;20014;-13
2022/07/31 11:31:52;;;;;;;2.15;1.80;;;41.60;24.10;;;;;;5015144;28;20056;-13
2022/07/31 11:34:18;;;;;;;2.67;1.85;;;41.80;24.00;;;;;;5014673;28;20478;-14
2022/07/31 11:36:44;;;;;;;4.18;1.70;;;41.70;23.80;;;;;;5014684;28;20037;-13
2022/07/31 11:39:13;;;;;;;2.00;1.90;;;41.90;24.00;;;;;;5015127;28;20532;-14
2022/07/31 11:41:39;;;;;;;1.70;1.60;;;42.10;24.30;;;;;;5014763;28;20497;-13
2022/07/31 11:44:04;;;;;;;1.70;1.60;;;42.30;24.20;;;;;;5014984;28;20053;-13
2022/07/31 11:46:33;;;;;;;2.78;1.63;;;42.40;24.10;;;;;;5014365;28;20018;-13
2022/07/31 11:49:01;;;;;;;2.15;1.95;;;42.50;24.10;;;;;;5014606;28;20037;-13
2022/07/31 11:51:27;;;;;;;1.73;1.63;;;42.60;23.60;;;;;;5013352;28;20025;-13
2022/07/31 11:53:54;;;;;;;1.83;1.70;;;42.70;23.60;;;;;;5014462;28;20500;-13
2022/07/31 11:56:21;;;;;;;2.50;1.60;;;43.00;23.10;;;;;;5014402;28;20022;-13
2022/07/31 11:58:49;;;;;;;1.80;1.70;;;43.10;23.10;;;;;;5014425;28;20501;-13
2022/07/31 12:01:17;;;;;;;2.38;1.95;;;43.20;21.90;;;;;;5014770;28;20025;-13
2022/07/31 12:03:44;;;;;;;2.22;1.63;;;43.30;22.00;;;;;;5014601;28;20030;-13
2022/07/31 12:06:11;;;;;;;1.85;1.75;;;43.50;22.10;;;;;;5014471;28;20029;-13
2022/07/31 12:08:39;;;;;;;3.38;1.73;;;43.90;21.60;;;;;;5014347;28;20044;-13
2022/07/31 12:11:07;;;;;;;2.78;1.73;;;44.20;21.60;;;;;;5014213;28;20478;-13
2022/07/31 12:13:34;;;;;;;2.00;1.90;;;44.40;21.60;;;;;;5014147;28;20437;-13
2022/07/31 12:16:10;;;;;;;2.33;1.92;;;44.50;22.10;;;;;;5014271;28;20026;-13
2022/07/31 12:18:49;;;;;;;2.10;1.90;;;44.50;21.40;;;;;;5013807;28;20037;-13
2022/07/31 12:21:17;;;;;;;3.72;1.90;;;44.40;21.40;;;;;;5014093;28;20022;-13
2022/07/31 12:23:47;;;;;;;3.72;1.83;;;44.20;21.60;;;;;;5014657;28;20025;-13
2022/07/31 12:26:31;;;;;;;1.67;1.58;;;44.20;21.40;;;;;;5014029;28;20068;-13
2022/07/31 12:29:01;;;;;;;1.95;1.63;;;44.00;21.40;;;;;;5014241;28;20022;-13
2022/07/31 12:31:30;;;;;;;2.72;2.00;;;44.10;21.80;;;;;;5014180;28;20030;-13
2022/07/31 12:33:56;;;;;;;2.15;1.95;;;44.40;21.90;;;;;;5013894;28;20038;-13
2022/07/31 12:36:22;;;;;;;3.40;1.80;;;44.50;21.30;;;;;;5013805;28;20018;-13
2022/07/31 12:38:59;;;;;;;2.45;1.80;;;44.50;21.40;;;;;;5014058;28;20478;-13
2022/07/31 12:41:26;;;;;;;1.83;1.67;;;44.40;20.90;;;;;;5013651;28;20046;-13
2022/07/31 12:43:52;;;;;;;2.00;1.67;;;44.30;21.80;;;;;;5013993;28;20152;-13
2022/07/31 12:46:34;;;;;;;2.05;1.83;;;44.30;21.70;;;;;;5013604;28;20065;-14
2022/07/31 12:49:01;;;;;;;1.70;1.60;;;44.10;21.70;;;;;;5014139;28;20025;-13
2022/07/31 12:51:27;;;;;;;3.63;1.75;;;44.10;22.20;;;;;;5013781;28;20022;-13